sensor_id;sensor_type;location;lat;lon;timestamp;P1;durP1;ratioP1;P2;durP2;ratioP2
76021;SDS011;64718;52.124;6.226;2023-01-23T00:02:07;22.33;;;8.95;;
76021;SDS011;64718;52.124;6.226;2023-01-23T00:04:34;23.30;;;10.48;;
76021;SDS011;64718;52.124;6.226;2023-01-23T00:07:01;20.48;;;8.95;;
76021;SDS011;64718;52.124;6.226;2023-01-23T00:09:28;25.25;;;9.68;;
76021;SDS011;64718;52.124;6.226;2023-01-23T00:11:54;21.38;;;9.68;;
76021;SDS011;64718;52.124;6.226;2023-01-23T00:14:22;21.15;;;9.43;;
76021;SDS011;64718;52.124;6.226;2023-01-23T00:16:49;25.00;;;10.48;;
76021;SDS011;64718;52.124;6.226;2023-01-23T00:19:15;23.35;;;10.13;;
76021;SDS011;64718;52.124;6.226;2023-01-23T00:21:42;28.08;;;10.98;;
76021;SDS011;64718;52.124;6.226;2023-01-23T00:24:09;22.58;;;9.40;;
76021;SDS011;64718;52.124;6.226;2023-01-23T00:26:37;23.10;;;10.52;;
76021;SDS011;64718;52.124;6.226;2023-01-23T00:29:03;20.48;;;9.60;;
76021;SDS011;64718;52.124;6.226;2023-01-23T00:31:32;21.73;;;10.10;;
76021;SDS011;64718;52.124;6.226;2023-01-23T00:34:01;23.60;;;10.52;;
76021;SDS011;64718;52.124;6.226;2023-01-23T00:36:30;23.90;;;9.77;;
76021;SDS011;64718;52.124;6.226;2023-01-23T00:38:58;29.67;;;10.02;;
76021;SDS011;64718;52.124;6.226;2023-01-23T00:41:25;25.30;;;10.32;;
76021;SDS011;64718;52.124;6.226;2023-01-23T00:43:52;22.17;;;9.35;;
76021;SDS011;64718;52.124;6.226;2023-01-23T00:46:19;22.65;;;9.35;;
76021;SDS011;64718;52.124;6.226;2023-01-23T00:48:47;22.75;;;10.02;;
76021;SDS011;64718;52.124;6.226;2023-01-23T00:51:15;21.55;;;9.27;;
76021;SDS011;64718;52.124;6.226;2023-01-23T00:53:41;22.58;;;9.18;;
76021;SDS011;64718;52.124;6.226;2023-01-23T00:56:08;20.00;;;9.52;;
76021;SDS011;64718;52.124;6.226;2023-01-23T00:58:35;26.45;;;9.85;;
76021;SDS011;64718;52.124;6.226;2023-01-23T01:01:01;28.70;;;10.07;;
76021;SDS011;64718;52.124;6.226;2023-01-23T01:03:28;24.75;;;9.63;;
76021;SDS011;64718;52.124;6.226;2023-01-23T01:05:56;21.80;;;9.73;;
76021;SDS011;64718;52.124;6.226;2023-01-23T01:08:23;23.58;;;9.38;;
76021;SDS011;64718;52.124;6.226;2023-01-23T01:10:49;25.00;;;9.40;;
76021;SDS011;64718;52.124;6.226;2023-01-23T01:13:16;20.85;;;8.98;;
76021;SDS011;64718;52.124;6.226;2023-01-23T01:15:45;23.85;;;9.52;;
76021;SDS011;64718;52.124;6.226;2023-01-23T01:18:12;21.58;;;9.65;;
76021;SDS011;64718;52.124;6.226;2023-01-23T01:20:39;22.35;;;9.88;;
76021;SDS011;64718;52.124;6.226;2023-01-23T01:23:08;23.60;;;10.40;;
76021;SDS011;64718;52.124;6.226;2023-01-23T01:25:34;19.33;;;8.18;;
76021;SDS011;64718;52.124;6.226;2023-01-23T01:28:01;23.80;;;9.38;;
76021;SDS011;64718;52.124;6.226;2023-01-23T01:30:28;22.77;;;9.13;;
76021;SDS011;64718;52.124;6.226;2023-01-23T01:32:54;23.30;;;9.23;;
76021;SDS011;64718;52.124;6.226;2023-01-23T01:35:22;20.85;;;8.43;;
76021;SDS011;64718;52.124;6.226;2023-01-23T01:37:48;29.63;;;10.13;;
76021;SDS011;64718;52.124;6.226;2023-01-23T01:40:18;20.90;;;8.15;;
76021;SDS011;64718;52.124;6.226;2023-01-23T01:42:47;22.38;;;9.90;;
76021;SDS011;64718;52.124;6.226;2023-01-23T01:48:31;25.33;;;9.82;;
76021;SDS011;64718;52.124;6.226;2023-01-23T01:51:00;21.02;;;9.75;;
76021;SDS011;64718;52.124;6.226;2023-01-23T01:53:31;20.35;;;9.05;;
76021;SDS011;64718;52.124;6.226;2023-01-23T01:56:00;23.58;;;9.15;;
76021;SDS011;64718;52.124;6.226;2023-01-23T01:58:27;19.55;;;8.57;;
76021;SDS011;64718;52.124;6.226;2023-01-23T02:00:55;22.77;;;10.13;;
76021;SDS011;64718;52.124;6.226;2023-01-23T02:03:22;22.05;;;9.65;;
76021;SDS011;64718;52.124;6.226;2023-01-23T02:05:50;26.33;;;10.65;;
76021;SDS011;64718;52.124;6.226;2023-01-23T02:08:17;18.67;;;8.68;;
76021;SDS011;64718;52.124;6.226;2023-01-23T02:10:48;23.67;;;9.80;;
76021;SDS011;64718;52.124;6.226;2023-01-23T02:13:22;20.55;;;9.10;;
76021;SDS011;64718;52.124;6.226;2023-01-23T02:15:52;19.75;;;9.32;;
76021;SDS011;64718;52.124;6.226;2023-01-23T02:18:19;23.23;;;10.25;;
76021;SDS011;64718;52.124;6.226;2023-01-23T02:20:47;19.63;;;9.40;;
76021;SDS011;64718;52.124;6.226;2023-01-23T02:23:17;24.38;;;9.82;;
76021;SDS011;64718;52.124;6.226;2023-01-23T02:25:55;18.98;;;8.70;;
76021;SDS011;64718;52.124;6.226;2023-01-23T02:28:34;19.75;;;8.90;;
76021;SDS011;64718;52.124;6.226;2023-01-23T02:31:02;25.27;;;12.55;;
76021;SDS011;64718;52.124;6.226;2023-01-23T02:33:46;20.23;;;8.85;;
76021;SDS011;64718;52.124;6.226;2023-01-23T02:36:18;20.60;;;9.02;;
76021;SDS011;64718;52.124;6.226;2023-01-23T02:38:52;22.50;;;9.45;;
76021;SDS011;64718;52.124;6.226;2023-01-23T02:41:28;19.23;;;8.57;;
76021;SDS011;64718;52.124;6.226;2023-01-23T02:43:56;24.10;;;10.00;;
76021;SDS011;64718;52.124;6.226;2023-01-23T02:46:25;21.05;;;9.77;;
76021;SDS011;64718;52.124;6.226;2023-01-23T02:48:52;23.77;;;9.10;;
76021;SDS011;64718;52.124;6.226;2023-01-23T02:51:19;20.08;;;8.90;;
76021;SDS011;64718;52.124;6.226;2023-01-23T02:53:46;23.38;;;9.20;;
76021;SDS011;64718;52.124;6.226;2023-01-23T02:56:13;22.23;;;8.80;;
76021;SDS011;64718;52.124;6.226;2023-01-23T02:58:41;18.15;;;8.77;;
76021;SDS011;64718;52.124;6.226;2023-01-23T03:01:25;20.42;;;7.97;;
76021;SDS011;64718;52.124;6.226;2023-01-23T03:03:52;24.48;;;9.60;;
76021;SDS011;64718;52.124;6.226;2023-01-23T03:06:21;20.88;;;8.80;;
76021;SDS011;64718;52.124;6.226;2023-01-23T03:08:48;21.77;;;10.27;;
76021;SDS011;64718;52.124;6.226;2023-01-23T03:11:15;21.75;;;8.82;;
76021;SDS011;64718;52.124;6.226;2023-01-23T03:13:44;23.15;;;9.68;;
76021;SDS011;64718;52.124;6.226;2023-01-23T03:16:12;17.10;;;8.63;;
76021;SDS011;64718;52.124;6.226;2023-01-23T03:18:39;20.02;;;8.88;;
76021;SDS011;64718;52.124;6.226;2023-01-23T03:21:06;21.02;;;9.63;;
76021;SDS011;64718;52.124;6.226;2023-01-23T03:23:33;24.75;;;9.50;;
76021;SDS011;64718;52.124;6.226;2023-01-23T03:26:00;21.90;;;9.35;;
76021;SDS011;64718;52.124;6.226;2023-01-23T03:28:27;17.08;;;8.57;;
76021;SDS011;64718;52.124;6.226;2023-01-23T03:31:14;22.40;;;8.77;;
76021;SDS011;64718;52.124;6.226;2023-01-23T03:33:41;20.45;;;8.35;;
76021;SDS011;64718;52.124;6.226;2023-01-23T03:36:08;20.27;;;8.82;;
76021;SDS011;64718;52.124;6.226;2023-01-23T03:38:35;22.25;;;9.57;;
76021;SDS011;64718;52.124;6.226;2023-01-23T03:41:02;19.33;;;9.48;;
76021;SDS011;64718;52.124;6.226;2023-01-23T03:43:53;19.33;;;7.82;;
76021;SDS011;64718;52.124;6.226;2023-01-23T03:46:22;19.70;;;8.75;;
76021;SDS011;64718;52.124;6.226;2023-01-23T03:48:48;25.58;;;9.38;;
76021;SDS011;64718;52.124;6.226;2023-01-23T03:51:15;18.60;;;9.18;;
76021;SDS011;64718;52.124;6.226;2023-01-23T03:53:41;21.73;;;8.23;;
76021;SDS011;64718;52.124;6.226;2023-01-23T03:56:08;23.13;;;9.23;;
76021;SDS011;64718;52.124;6.226;2023-01-23T03:58:34;21.27;;;9.68;;
76021;SDS011;64718;52.124;6.226;2023-01-23T04:01:03;20.45;;;9.05;;
76021;SDS011;64718;52.124;6.226;2023-01-23T04:03:32;22.17;;;9.48;;
76021;SDS011;64718;52.124;6.226;2023-01-23T04:05:59;23.77;;;10.43;;
76021;SDS011;64718;52.124;6.226;2023-01-23T04:08:25;18.88;;;9.65;;
76021;SDS011;64718;52.124;6.226;2023-01-23T04:10:59;19.15;;;9.10;;
76021;SDS011;64718;52.124;6.226;2023-01-23T04:13:26;21.27;;;8.73;;
76021;SDS011;64718;52.124;6.226;2023-01-23T04:15:53;23.10;;;9.38;;
76021;SDS011;64718;52.124;6.226;2023-01-23T04:18:19;23.52;;;10.52;;
76021;SDS011;64718;52.124;6.226;2023-01-23T04:20:47;21.10;;;9.43;;
76021;SDS011;64718;52.124;6.226;2023-01-23T04:23:14;25.33;;;10.85;;
76021;SDS011;64718;52.124;6.226;2023-01-23T04:25:40;25.05;;;9.52;;
76021;SDS011;64718;52.124;6.226;2023-01-23T04:28:07;22.17;;;10.43;;
76021;SDS011;64718;52.124;6.226;2023-01-23T04:30:33;23.67;;;10.30;;
76021;SDS011;64718;52.124;6.226;2023-01-23T04:33:00;25.17;;;11.20;;
76021;SDS011;64718;52.124;6.226;2023-01-23T04:35:26;24.13;;;10.43;;
76021;SDS011;64718;52.124;6.226;2023-01-23T04:37:54;20.27;;;9.15;;
76021;SDS011;64718;52.124;6.226;2023-01-23T04:40:21;21.40;;;10.77;;
76021;SDS011;64718;52.124;6.226;2023-01-23T04:42:47;21.60;;;10.63;;
76021;SDS011;64718;52.124;6.226;2023-01-23T04:45:14;22.52;;;10.23;;
76021;SDS011;64718;52.124;6.226;2023-01-23T04:47:40;25.60;;;10.85;;
76021;SDS011;64718;52.124;6.226;2023-01-23T04:50:07;19.58;;;9.70;;
76021;SDS011;64718;52.124;6.226;2023-01-23T04:52:34;19.65;;;8.68;;
76021;SDS011;64718;52.124;6.226;2023-01-23T04:55:02;20.33;;;10.65;;
76021;SDS011;64718;52.124;6.226;2023-01-23T04:57:29;21.13;;;9.50;;
76021;SDS011;64718;52.124;6.226;2023-01-23T04:59:56;20.27;;;9.82;;
76021;SDS011;64718;52.124;6.226;2023-01-23T05:02:22;17.60;;;8.85;;
76021;SDS011;64718;52.124;6.226;2023-01-23T05:04:49;17.60;;;8.43;;
76021;SDS011;64718;52.124;6.226;2023-01-23T05:07:16;20.80;;;8.85;;
76021;SDS011;64718;52.124;6.226;2023-01-23T05:09:42;21.67;;;9.48;;
76021;SDS011;64718;52.124;6.226;2023-01-23T05:12:10;20.25;;;8.75;;
76021;SDS011;64718;52.124;6.226;2023-01-23T05:14:36;17.48;;;9.30;;
76021;SDS011;64718;52.124;6.226;2023-01-23T05:17:03;18.92;;;9.02;;
76021;SDS011;64718;52.124;6.226;2023-01-23T05:19:29;20.70;;;8.77;;
76021;SDS011;64718;52.124;6.226;2023-01-23T05:21:56;24.70;;;10.15;;
76021;SDS011;64718;52.124;6.226;2023-01-23T05:24:23;17.42;;;8.80;;
76021;SDS011;64718;52.124;6.226;2023-01-23T05:26:49;20.33;;;8.82;;
76021;SDS011;64718;52.124;6.226;2023-01-23T05:29:17;18.10;;;8.93;;
76021;SDS011;64718;52.124;6.226;2023-01-23T05:31:43;22.60;;;8.57;;
76021;SDS011;64718;52.124;6.226;2023-01-23T05:34:10;20.23;;;8.80;;
76021;SDS011;64718;52.124;6.226;2023-01-23T05:36:37;26.98;;;9.18;;
76021;SDS011;64718;52.124;6.226;2023-01-23T05:39:03;17.13;;;8.55;;
76021;SDS011;64718;52.124;6.226;2023-01-23T05:41:30;23.55;;;8.82;;
76021;SDS011;64718;52.124;6.226;2023-01-23T05:43:56;18.77;;;8.93;;
76021;SDS011;64718;52.124;6.226;2023-01-23T05:46:24;23.25;;;12.50;;
76021;SDS011;64718;52.124;6.226;2023-01-23T05:48:51;20.77;;;8.45;;
76021;SDS011;64718;52.124;6.226;2023-01-23T05:51:18;20.85;;;9.02;;
76021;SDS011;64718;52.124;6.226;2023-01-23T05:53:45;19.40;;;9.45;;
76021;SDS011;64718;52.124;6.226;2023-01-23T05:56:12;22.52;;;9.80;;
76021;SDS011;64718;52.124;6.226;2023-01-23T05:58:39;24.83;;;10.18;;
76021;SDS011;64718;52.124;6.226;2023-01-23T06:01:05;22.15;;;9.75;;
76021;SDS011;64718;52.124;6.226;2023-01-23T06:03:33;26.20;;;10.55;;
76021;SDS011;64718;52.124;6.226;2023-01-23T06:06:00;19.48;;;9.25;;
76021;SDS011;64718;52.124;6.226;2023-01-23T06:08:27;19.58;;;9.88;;
76021;SDS011;64718;52.124;6.226;2023-01-23T06:10:53;20.23;;;9.77;;
76021;SDS011;64718;52.124;6.226;2023-01-23T06:13:22;25.88;;;10.90;;
76021;SDS011;64718;52.124;6.226;2023-01-23T06:15:49;23.90;;;10.55;;
76021;SDS011;64718;52.124;6.226;2023-01-23T06:18:16;22.58;;;9.23;;
76021;SDS011;64718;52.124;6.226;2023-01-23T06:20:44;22.05;;;9.57;;
76021;SDS011;64718;52.124;6.226;2023-01-23T06:23:11;17.48;;;8.38;;
76021;SDS011;64718;52.124;6.226;2023-01-23T06:25:38;20.10;;;9.48;;
76021;SDS011;64718;52.124;6.226;2023-01-23T06:28:05;21.02;;;9.38;;
76021;SDS011;64718;52.124;6.226;2023-01-23T06:30:31;19.88;;;9.23;;
76021;SDS011;64718;52.124;6.226;2023-01-23T06:32:58;19.63;;;10.00;;
76021;SDS011;64718;52.124;6.226;2023-01-23T06:35:24;20.38;;;10.18;;
76021;SDS011;64718;52.124;6.226;2023-01-23T06:37:52;20.55;;;9.65;;
76021;SDS011;64718;52.124;6.226;2023-01-23T06:40:19;20.00;;;9.63;;
76021;SDS011;64718;52.124;6.226;2023-01-23T06:42:45;25.50;;;10.23;;
76021;SDS011;64718;52.124;6.226;2023-01-23T06:45:12;19.70;;;9.13;;
76021;SDS011;64718;52.124;6.226;2023-01-23T06:47:39;16.33;;;7.35;;
76021;SDS011;64718;52.124;6.226;2023-01-23T06:50:06;22.45;;;10.73;;
76021;SDS011;64718;52.124;6.226;2023-01-23T06:52:33;23.20;;;9.60;;
76021;SDS011;64718;52.124;6.226;2023-01-23T06:55:01;18.55;;;10.57;;
76021;SDS011;64718;52.124;6.226;2023-01-23T06:57:28;22.33;;;10.23;;
76021;SDS011;64718;52.124;6.226;2023-01-23T06:59:54;20.00;;;9.40;;
76021;SDS011;64718;52.124;6.226;2023-01-23T07:02:21;19.85;;;10.23;;
76021;SDS011;64718;52.124;6.226;2023-01-23T07:04:48;17.40;;;8.63;;
76021;SDS011;64718;52.124;6.226;2023-01-23T07:07:14;21.67;;;10.82;;
76021;SDS011;64718;52.124;6.226;2023-01-23T07:09:41;27.13;;;10.85;;
76021;SDS011;64718;52.124;6.226;2023-01-23T07:12:09;21.55;;;9.23;;
76021;SDS011;64718;52.124;6.226;2023-01-23T07:14:36;20.15;;;8.93;;
76021;SDS011;64718;52.124;6.226;2023-01-23T07:17:02;25.27;;;10.13;;
76021;SDS011;64718;52.124;6.226;2023-01-23T07:19:29;19.38;;;9.00;;
76021;SDS011;64718;52.124;6.226;2023-01-23T07:21:55;25.05;;;12.07;;
76021;SDS011;64718;52.124;6.226;2023-01-23T07:24:22;19.90;;;10.10;;
76021;SDS011;64718;52.124;6.226;2023-01-23T07:26:49;20.67;;;9.43;;
76021;SDS011;64718;52.124;6.226;2023-01-23T07:29:17;22.05;;;10.05;;
76021;SDS011;64718;52.124;6.226;2023-01-23T07:31:43;20.75;;;9.73;;
76021;SDS011;64718;52.124;6.226;2023-01-23T07:34:10;18.52;;;8.77;;
76021;SDS011;64718;52.124;6.226;2023-01-23T07:36:36;20.60;;;10.40;;
76021;SDS011;64718;52.124;6.226;2023-01-23T07:39:03;22.65;;;10.40;;
76021;SDS011;64718;52.124;6.226;2023-01-23T07:41:29;18.60;;;9.57;;
76021;SDS011;64718;52.124;6.226;2023-01-23T07:43:56;24.23;;;10.85;;
76021;SDS011;64718;52.124;6.226;2023-01-23T07:46:24;21.23;;;10.45;;
76021;SDS011;64718;52.124;6.226;2023-01-23T07:48:50;21.70;;;11.00;;
76021;SDS011;64718;52.124;6.226;2023-01-23T07:51:17;18.35;;;9.20;;
76021;SDS011;64718;52.124;6.226;2023-01-23T07:53:44;22.98;;;10.05;;
76021;SDS011;64718;52.124;6.226;2023-01-23T07:56:10;21.48;;;9.30;;
76021;SDS011;64718;52.124;6.226;2023-01-23T07:58:37;21.80;;;9.80;;
76021;SDS011;64718;52.124;6.226;2023-01-23T08:01:07;18.95;;;9.38;;
76021;SDS011;64718;52.124;6.226;2023-01-23T08:03:36;20.58;;;9.55;;
76021;SDS011;64718;52.124;6.226;2023-01-23T08:06:02;25.17;;;10.40;;
76021;SDS011;64718;52.124;6.226;2023-01-23T08:08:29;25.55;;;10.75;;
76021;SDS011;64718;52.124;6.226;2023-01-23T08:10:56;20.38;;;9.65;;
76021;SDS011;64718;52.124;6.226;2023-01-23T08:13:22;23.58;;;10.65;;
76021;SDS011;64718;52.124;6.226;2023-01-23T08:15:49;21.08;;;9.73;;
76021;SDS011;64718;52.124;6.226;2023-01-23T08:18:17;22.13;;;10.93;;
76021;SDS011;64718;52.124;6.226;2023-01-23T08:20:45;21.52;;;9.75;;
76021;SDS011;64718;52.124;6.226;2023-01-23T08:23:18;24.00;;;9.90;;
76021;SDS011;64718;52.124;6.226;2023-01-23T08:25:44;24.08;;;10.30;;
76021;SDS011;64718;52.124;6.226;2023-01-23T08:28:11;18.80;;;9.70;;
76021;SDS011;64718;52.124;6.226;2023-01-23T08:30:37;17.98;;;9.45;;
76021;SDS011;64718;52.124;6.226;2023-01-23T08:33:04;22.17;;;10.07;;
76021;SDS011;64718;52.124;6.226;2023-01-23T08:35:30;19.30;;;10.07;;
76021;SDS011;64718;52.124;6.226;2023-01-23T08:37:58;17.25;;;9.45;;
76021;SDS011;64718;52.124;6.226;2023-01-23T08:40:26;18.42;;;9.60;;
76021;SDS011;64718;52.124;6.226;2023-01-23T08:42:53;20.33;;;10.13;;
76021;SDS011;64718;52.124;6.226;2023-01-23T08:45:19;22.02;;;10.90;;
76021;SDS011;64718;52.124;6.226;2023-01-23T08:47:46;21.65;;;10.82;;
76021;SDS011;64718;52.124;6.226;2023-01-23T08:50:12;21.77;;;9.48;;
76021;SDS011;64718;52.124;6.226;2023-01-23T08:52:39;22.08;;;10.40;;
76021;SDS011;64718;52.124;6.226;2023-01-23T08:55:08;20.50;;;10.50;;
76021;SDS011;64718;52.124;6.226;2023-01-23T08:57:36;21.05;;;10.50;;
76021;SDS011;64718;52.124;6.226;2023-01-23T09:00:03;19.17;;;10.43;;
76021;SDS011;64718;52.124;6.226;2023-01-23T09:02:30;20.33;;;10.40;;
76021;SDS011;64718;52.124;6.226;2023-01-23T09:04:57;21.88;;;10.15;;
76021;SDS011;64718;52.124;6.226;2023-01-23T09:07:23;21.50;;;10.20;;
76021;SDS011;64718;52.124;6.226;2023-01-23T09:09:50;21.33;;;9.35;;
76021;SDS011;64718;52.124;6.226;2023-01-23T09:12:18;22.73;;;11.25;;
76021;SDS011;64718;52.124;6.226;2023-01-23T09:14:44;18.83;;;9.52;;
76021;SDS011;64718;52.124;6.226;2023-01-23T09:17:11;25.02;;;10.18;;
76021;SDS011;64718;52.124;6.226;2023-01-23T09:19:37;19.48;;;8.65;;
76021;SDS011;64718;52.124;6.226;2023-01-23T09:22:04;21.52;;;10.85;;
76021;SDS011;64718;52.124;6.226;2023-01-23T09:24:30;21.10;;;10.50;;
76021;SDS011;64718;52.124;6.226;2023-01-23T09:26:57;19.27;;;9.77;;
76021;SDS011;64718;52.124;6.226;2023-01-23T09:29:25;18.67;;;9.20;;
76021;SDS011;64718;52.124;6.226;2023-01-23T09:31:51;23.85;;;9.73;;
76021;SDS011;64718;52.124;6.226;2023-01-23T09:34:18;22.85;;;9.63;;
76021;SDS011;64718;52.124;6.226;2023-01-23T09:36:44;16.23;;;7.15;;
76021;SDS011;64718;52.124;6.226;2023-01-23T09:39:11;18.00;;;9.02;;
76021;SDS011;64718;52.124;6.226;2023-01-23T09:41:37;19.70;;;8.05;;
76021;SDS011;64718;52.124;6.226;2023-01-23T09:44:06;17.92;;;9.00;;
76021;SDS011;64718;52.124;6.226;2023-01-23T09:46:39;17.38;;;8.48;;
76021;SDS011;64718;52.124;6.226;2023-01-23T09:49:11;18.08;;;8.70;;
76021;SDS011;64718;52.124;6.226;2023-01-23T09:51:49;19.15;;;9.60;;
76021;SDS011;64718;52.124;6.226;2023-01-23T09:56:54;18.98;;;9.55;;
76021;SDS011;64718;52.124;6.226;2023-01-23T09:59:26;18.50;;;8.60;;
76021;SDS011;64718;52.124;6.226;2023-01-23T10:01:59;18.85;;;9.00;;
76021;SDS011;64718;52.124;6.226;2023-01-23T10:04:26;15.05;;;8.35;;
76021;SDS011;64718;52.124;6.226;2023-01-23T10:06:58;17.50;;;9.18;;
76021;SDS011;64718;52.124;6.226;2023-01-23T10:09:42;15.10;;;8.05;;
76021;SDS011;64718;52.124;6.226;2023-01-23T10:12:27;17.63;;;9.25;;
76021;SDS011;64718;52.124;6.226;2023-01-23T10:15:12;19.00;;;8.60;;
76021;SDS011;64718;52.124;6.226;2023-01-23T10:17:46;17.40;;;9.43;;
76021;SDS011;64718;52.124;6.226;2023-01-23T10:20:26;15.43;;;8.45;;
76021;SDS011;64718;52.124;6.226;2023-01-23T10:23:15;18.13;;;8.35;;
76021;SDS011;64718;52.124;6.226;2023-01-23T10:25:54;18.25;;;8.75;;
76021;SDS011;64718;52.124;6.226;2023-01-23T10:28:24;18.38;;;9.45;;
76021;SDS011;64718;52.124;6.226;2023-01-23T10:30:59;19.08;;;9.70;;
76021;SDS011;64718;52.124;6.226;2023-01-23T10:33:33;15.98;;;7.72;;
76021;SDS011;64718;52.124;6.226;2023-01-23T10:36:05;18.38;;;9.40;;
76021;SDS011;64718;52.124;6.226;2023-01-23T10:38:44;16.63;;;7.65;;
76021;SDS011;64718;52.124;6.226;2023-01-23T10:41:14;13.65;;;7.30;;
76021;SDS011;64718;52.124;6.226;2023-01-23T10:43:45;19.67;;;9.00;;
76021;SDS011;64718;52.124;6.226;2023-01-23T10:46:14;17.50;;;7.90;;
76021;SDS011;64718;52.124;6.226;2023-01-23T10:48:44;18.77;;;8.40;;
76021;SDS011;64718;52.124;6.226;2023-01-23T10:51:25;14.27;;;8.27;;
76021;SDS011;64718;52.124;6.226;2023-01-23T10:54:08;15.30;;;7.32;;
76021;SDS011;64718;52.124;6.226;2023-01-23T10:56:38;13.80;;;7.07;;
76021;SDS011;64718;52.124;6.226;2023-01-23T10:59:17;15.10;;;7.82;;
76021;SDS011;64718;52.124;6.226;2023-01-23T11:01:53;16.05;;;7.47;;
76021;SDS011;64718;52.124;6.226;2023-01-23T11:04:24;12.93;;;7.25;;
76021;SDS011;64718;52.124;6.226;2023-01-23T11:07:05;18.08;;;7.78;;
76021;SDS011;64718;52.124;6.226;2023-01-23T11:09:43;13.93;;;7.32;;
76021;SDS011;64718;52.124;6.226;2023-01-23T11:12:16;18.45;;;8.07;;
76021;SDS011;64718;52.124;6.226;2023-01-23T11:14:45;12.68;;;6.38;;
76021;SDS011;64718;52.124;6.226;2023-01-23T11:17:18;16.10;;;6.80;;
76021;SDS011;64718;52.124;6.226;2023-01-23T11:22:25;14.95;;;6.85;;
76021;SDS011;64718;52.124;6.226;2023-01-23T11:24:54;15.18;;;7.15;;
76021;SDS011;64718;52.124;6.226;2023-01-23T11:27:22;14.02;;;7.43;;
76021;SDS011;64718;52.124;6.226;2023-01-23T11:29:57;13.40;;;6.30;;
76021;SDS011;64718;52.124;6.226;2023-01-23T11:32:42;13.63;;;6.95;;
76021;SDS011;64718;52.124;6.226;2023-01-23T11:35:18;14.48;;;6.78;;
76021;SDS011;64718;52.124;6.226;2023-01-23T11:37:50;14.73;;;7.22;;
76021;SDS011;64718;52.124;6.226;2023-01-23T11:40:18;13.10;;;6.05;;
76021;SDS011;64718;52.124;6.226;2023-01-23T11:42:45;13.75;;;7.63;;
76021;SDS011;64718;52.124;6.226;2023-01-23T11:45:12;12.63;;;6.63;;
76021;SDS011;64718;52.124;6.226;2023-01-23T11:47:53;15.25;;;7.18;;
76021;SDS011;64718;52.124;6.226;2023-01-23T11:50:35;14.20;;;6.68;;
76021;SDS011;64718;52.124;6.226;2023-01-23T11:53:09;13.77;;;6.65;;
76021;SDS011;64718;52.124;6.226;2023-01-23T11:55:50;18.67;;;8.10;;
76021;SDS011;64718;52.124;6.226;2023-01-23T11:58:40;17.42;;;8.05;;
76021;SDS011;64718;52.124;6.226;2023-01-23T12:01:19;11.95;;;6.28;;
76021;SDS011;64718;52.124;6.226;2023-01-23T12:03:57;13.95;;;6.78;;
76021;SDS011;64718;52.124;6.226;2023-01-23T12:06:49;13.27;;;7.03;;
76021;SDS011;64718;52.124;6.226;2023-01-23T12:09:25;13.93;;;7.60;;
76021;SDS011;64718;52.124;6.226;2023-01-23T12:12:02;15.88;;;6.80;;
76021;SDS011;64718;52.124;6.226;2023-01-23T12:14:42;14.23;;;7.97;;
76021;SDS011;64718;52.124;6.226;2023-01-23T12:17:17;12.93;;;6.97;;
76021;SDS011;64718;52.124;6.226;2023-01-23T12:20:02;14.13;;;6.88;;
76021;SDS011;64718;52.124;6.226;2023-01-23T12:22:48;13.82;;;7.70;;
76021;SDS011;64718;52.124;6.226;2023-01-23T12:25:22;14.07;;;7.18;;
76021;SDS011;64718;52.124;6.226;2023-01-23T12:27:55;16.25;;;8.02;;
76021;SDS011;64718;52.124;6.226;2023-01-23T12:33:33;14.23;;;7.90;;
76021;SDS011;64718;52.124;6.226;2023-01-23T12:36:15;12.77;;;6.45;;
76021;SDS011;64718;52.124;6.226;2023-01-23T12:38:52;15.27;;;7.75;;
76021;SDS011;64718;52.124;6.226;2023-01-23T12:41:29;14.38;;;7.32;;
76021;SDS011;64718;52.124;6.226;2023-01-23T12:44:03;14.27;;;6.93;;
76021;SDS011;64718;52.124;6.226;2023-01-23T12:46:38;13.93;;;7.60;;
76021;SDS011;64718;52.124;6.226;2023-01-23T12:49:13;12.05;;;6.35;;
76021;SDS011;64718;52.124;6.226;2023-01-23T12:51:46;15.68;;;7.72;;
76021;SDS011;64718;52.124;6.226;2023-01-23T12:54:26;13.30;;;7.10;;
76021;SDS011;64718;52.124;6.226;2023-01-23T13:02:02;13.35;;;6.20;;
76021;SDS011;64718;52.124;6.226;2023-01-23T13:04:40;12.35;;;6.55;;
76021;SDS011;64718;52.124;6.226;2023-01-23T13:07:23;14.25;;;6.60;;
76021;SDS011;64718;52.124;6.226;2023-01-23T13:10:09;14.30;;;6.97;;
76021;SDS011;64718;52.124;6.226;2023-01-23T13:12:45;14.77;;;6.95;;
76021;SDS011;64718;52.124;6.226;2023-01-23T13:15:22;16.35;;;7.18;;
76021;SDS011;64718;52.124;6.226;2023-01-23T13:17:59;13.88;;;6.90;;
76021;SDS011;64718;52.124;6.226;2023-01-23T13:20:27;14.73;;;7.20;;
76021;SDS011;64718;52.124;6.226;2023-01-23T13:23:19;13.55;;;6.25;;
76021;SDS011;64718;52.124;6.226;2023-01-23T13:25:49;15.38;;;6.45;;
76021;SDS011;64718;52.124;6.226;2023-01-23T13:28:38;15.02;;;6.88;;
76021;SDS011;64718;52.124;6.226;2023-01-23T13:31:06;16.30;;;7.45;;
76021;SDS011;64718;52.124;6.226;2023-01-23T13:33:51;15.93;;;6.97;;
76021;SDS011;64718;52.124;6.226;2023-01-23T13:36:22;13.45;;;7.10;;
76021;SDS011;64718;52.124;6.226;2023-01-23T13:51:28;14.80;;;6.60;;
76021;SDS011;64718;52.124;6.226;2023-01-23T13:53:55;13.15;;;6.70;;
76021;SDS011;64718;52.124;6.226;2023-01-23T13:56:39;14.43;;;7.32;;
76021;SDS011;64718;52.124;6.226;2023-01-23T13:59:10;11.25;;;5.82;;
76021;SDS011;64718;52.124;6.226;2023-01-23T14:01:47;14.63;;;7.35;;
76021;SDS011;64718;52.124;6.226;2023-01-23T14:04:38;13.90;;;7.03;;
76021;SDS011;64718;52.124;6.226;2023-01-23T14:07:27;14.30;;;7.10;;
76021;SDS011;64718;52.124;6.226;2023-01-23T14:10:22;14.20;;;7.72;;
76021;SDS011;64718;52.124;6.226;2023-01-23T14:12:59;13.48;;;7.95;;
76021;SDS011;64718;52.124;6.226;2023-01-23T14:15:28;14.88;;;6.43;;
76021;SDS011;64718;52.124;6.226;2023-01-23T14:18:16;15.27;;;7.45;;
76021;SDS011;64718;52.124;6.226;2023-01-23T14:20:45;16.50;;;7.47;;
76021;SDS011;64718;52.124;6.226;2023-01-23T14:23:16;13.23;;;7.38;;
76021;SDS011;64718;52.124;6.226;2023-01-23T14:25:52;15.18;;;7.28;;
76021;SDS011;64718;52.124;6.226;2023-01-23T14:28:19;13.20;;;6.20;;
76021;SDS011;64718;52.124;6.226;2023-01-23T14:30:56;11.77;;;6.35;;
76021;SDS011;64718;52.124;6.226;2023-01-23T14:33:26;14.10;;;6.97;;
76021;SDS011;64718;52.124;6.226;2023-01-23T14:35:54;15.57;;;6.32;;
76021;SDS011;64718;52.124;6.226;2023-01-23T14:38:28;12.65;;;7.22;;
76021;SDS011;64718;52.124;6.226;2023-01-23T14:40:58;14.35;;;8.02;;
76021;SDS011;64718;52.124;6.226;2023-01-23T14:43:29;13.45;;;6.68;;
76021;SDS011;64718;52.124;6.226;2023-01-23T14:45:58;14.32;;;6.32;;
76021;SDS011;64718;52.124;6.226;2023-01-23T14:48:28;15.18;;;6.68;;
76021;SDS011;64718;52.124;6.226;2023-01-23T14:51:13;16.35;;;7.32;;
76021;SDS011;64718;52.124;6.226;2023-01-23T14:53:48;15.32;;;8.05;;
76021;SDS011;64718;52.124;6.226;2023-01-23T14:56:18;14.93;;;7.75;;
76021;SDS011;64718;52.124;6.226;2023-01-23T14:58:46;13.43;;;6.78;;
76021;SDS011;64718;52.124;6.226;2023-01-23T15:01:13;15.30;;;6.70;;
76021;SDS011;64718;52.124;6.226;2023-01-23T15:03:42;12.93;;;6.57;;
76021;SDS011;64718;52.124;6.226;2023-01-23T15:06:19;16.52;;;7.03;;
76021;SDS011;64718;52.124;6.226;2023-01-23T15:08:47;15.45;;;7.90;;
76021;SDS011;64718;52.124;6.226;2023-01-23T15:11:15;15.68;;;7.60;;
76021;SDS011;64718;52.124;6.226;2023-01-23T15:13:49;14.55;;;7.57;;
76021;SDS011;64718;52.124;6.226;2023-01-23T15:16:19;13.90;;;7.05;;
76021;SDS011;64718;52.124;6.226;2023-01-23T15:18:52;15.25;;;6.30;;